Terminal Aerodrome Forecast
Issued by NWS

Home | Current Version | Previous Version | Graphics & Text | Print | Product List | Glossary On
Versions: 1 2 3 4 5 6 7 8 9 10 11 12 13 14 15 16
850
FTUS43 KBIS 221723
TAFDIK
TAF
KDIK 221723Z 2218/2318 32024G34KT P6SM FEW070 FEW250
     FM230200 31024G34KT P6SM SCT060 BKN090
     FM230500 31022G32KT P6SM BKN020 BKN035
     FM230700 31014G22KT P6SM BKN020 BKN035
     FM231200 31014G23KT P6SM SCT025 BKN035
     FM231300 31016G24KT P6SM FEW030 SCT035
     FM231500 31018G26KT P6SM FEW050 SCT250=

USA.gov is the U.S. government's official web portal to all federal, state and local government web resources and services.